Time;durP1;ratioP1;P1;durP2;ratioP2;P2;SDS_P1;SDS_P2;PMS_P1;PMS_P2;Temp;Humidity;BMP_temperature;BMP_pressure;BME280_temperature;BME280_humidity;BME280_pressure;Samples;Min_cycle;Max_cycle;Signal;HPM_P1;HPM_P2
2022/01/01 00:00:01;;;;;;;82.18;14.27;;;;;;;;;;5057152;28;20136;-65
2022/01/01 00:02:27;;;;;;;116.82;19.52;;;;;;;;;;5081039;28;20127;-65
2022/01/01 00:05:04;;;;;;;118.45;18.65;;;;;;;;;;5075606;28;20095;-65
2022/01/01 00:07:31;;;;;;;115.13;19.25;;;;;;;;;;5076038;28;20127;-65
2022/01/01 00:09:57;;;;;;;119.15;20.15;;;;;;;;;;5074700;28;20486;-65
2022/01/01 00:12:27;;;;;;;124.93;18.67;;;;;;;;;;5078972;28;20060;-65
2022/01/01 00:15:00;;;;;;;108.07;17.35;;;;;;;;;;5076212;28;20568;-65
2022/01/01 00:17:27;;;;;;;89.90;15.20;;;;;;;;;;5077077;28;20471;-65
2022/01/01 00:19:53;;;;;;;100.55;15.80;;;;;;;;;;5073761;28;20131;-65
2022/01/01 00:22:20;;;;;;;92.05;14.82;;;;;;;;;;5072081;28;20048;-64
2022/01/01 00:24:47;;;;;;;106.72;14.40;;;;;;;;;;5072683;28;20051;-65
2022/01/01 00:27:13;;;;;;;88.18;12.18;;;;;;;;;;5075300;28;20056;-65
2022/01/01 00:29:42;;;;;;;93.53;13.02;;;;;;;;;;5068355;28;20072;-65
2022/01/01 00:32:09;;;;;;;116.07;13.02;;;;;;;;;;5068711;28;20076;-65
2022/01/01 00:34:36;;;;;;;105.30;12.27;;;;;;;;;;5072195;28;20054;-65
2022/01/01 00:37:08;;;;;;;88.78;11.55;;;;;;;;;;5076689;28;21008;-65
2022/01/01 00:39:35;;;;;;;91.85;10.88;;;;;;;;;;5067981;28;20140;-64
2022/01/01 00:42:01;;;;;;;95.22;12.00;;;;;;;;;;5073900;28;20138;-65
2022/01/01 00:44:34;;;;;;;94.72;12.07;;;;;;;;;;5068332;28;20054;-65
2022/01/01 00:47:01;;;;;;;165.13;13.77;;;;;;;;;;5067385;28;20051;-65
2022/01/01 00:49:28;;;;;;;120.38;13.18;;;;;;;;;;5072139;28;20549;-65
2022/01/01 00:51:57;;;;;;;103.65;11.10;;;;;;;;;;5069107;28;20063;-65
2022/01/01 00:54:24;;;;;;;88.20;10.57;;;;;;;;;;5068684;28;20686;-65
2022/01/01 00:56:51;;;;;;;95.30;10.30;;;;;;;;;;5069899;28;21883;-65
2022/01/01 00:59:20;;;;;;;86.25;9.60;;;;;;;;;;5062100;28;20060;-65
2022/01/01 01:01:47;;;;;;;;;;;;;;;;;;5052262;28;20135;-65
2022/01/01 01:04:13;;;;;;;84.57;8.82;;;;;;;;;;5048325;28;19935;-65
2022/01/01 01:06:40;;;;;;;90.43;10.20;;;;;;;;;;5032116;28;20048;-65
2022/01/01 01:09:06;;;;;;;72.57;8.93;;;;;;;;;;5048695;28;20063;-64
2022/01/01 01:11:41;;;;;;;80.07;9.85;;;;;;;;;;5054497;28;20351;-65
2022/01/01 01:14:26;;;;;;;83.93;10.38;;;;;;;;;;5050141;28;20057;-65
2022/01/01 01:16:53;;;;;;;94.82;9.50;;;;;;;;;;5048797;28;20049;-65
2022/01/01 01:19:20;;;;;;;100.85;11.45;;;;;;;;;;5049179;28;20067;-65
2022/01/01 01:21:47;;;;;;;91.70;12.40;;;;;;;;;;5050416;28;20129;-65
2022/01/01 01:24:14;;;;;;;95.90;10.13;;;;;;;;;;5047897;28;20169;-65
2022/01/01 01:26:47;;;;;;;169.05;11.73;;;;;;;;;;5047172;28;21983;-65
2022/01/01 01:29:13;;;;;;;128.40;11.25;;;;;;;;;;5046551;28;22192;-65
2022/01/01 01:31:40;;;;;;;115.88;9.80;;;;;;;;;;5034798;28;20563;-65
2022/01/01 01:34:13;;;;;;;75.65;8.75;;;;;;;;;;5055807;28;20144;-64
2022/01/01 01:36:40;;;;;;;82.10;10.25;;;;;;;;;;5047826;28;20102;-64
2022/01/01 01:39:07;;;;;;;93.93;10.35;;;;;;;;;;5046487;28;20053;-64
2022/01/01 01:41:34;;;;;;;89.65;10.18;;;;;;;;;;5046639;28;20128;-64
2022/01/01 01:44:02;;;;;;;89.15;9.98;;;;;;;;;;5055497;28;20080;-64
2022/01/01 01:46:29;;;;;;;615.22;25.05;;;;;;;;;;5060155;28;20124;-64
2022/01/01 01:48:56;;;;;;;137.13;12.75;;;;;;;;;;5060951;28;20087;-64
2022/01/01 01:51:23;;;;;;;99.32;11.65;;;;;;;;;;5057622;28;20132;-64
2022/01/01 01:53:50;;;;;;;118.05;10.00;;;;;;;;;;5058481;28;20088;-64
2022/01/01 01:56:23;;;;;;;105.68;10.40;;;;;;;;;;5056575;28;20099;-64
2022/01/01 01:58:50;;;;;;;120.25;11.27;;;;;;;;;;5064632;28;20087;-64
2022/01/01 02:01:20;;;;;;;497.80;19.00;;;;;;;;;;5058159;28;20119;-64
2022/01/01 02:03:47;;;;;;;420.85;15.90;;;;;;;;;;5051317;28;20092;-64
2022/01/01 02:06:14;;;;;;;480.33;17.35;;;;;;;;;;5057496;28;20076;-64
2022/01/01 02:08:42;;;;;;;259.70;11.63;;;;;;;;;;5061544;28;20128;-64
2022/01/01 02:11:08;;;;;;;403.00;16.85;;;;;;;;;;5059475;28;20412;-65
2022/01/01 02:13:47;;;;;;;151.68;10.40;;;;;;;;;;5058251;28;20131;-64
2022/01/01 02:18:41;;;;;;;;;;;;;;;;;;5059439;28;20128;-64
2022/01/01 02:21:07;;;;;;;356.80;17.13;;;;;;;;;;5063284;28;19987;-64
2022/01/01 02:23:39;;;;;;;242.68;11.90;;;;;;;;;;5054430;28;20152;-64
2022/01/01 02:26:09;;;;;;;98.40;9.75;;;;;;;;;;5059048;28;20568;-64
2022/01/01 02:28:36;;;;;;;499.23;21.92;;;;;;;;;;5057149;28;20495;-64
2022/01/01 02:31:02;;;;;;;485.48;20.02;;;;;;;;;;5060521;28;20053;-64
2022/01/01 02:33:31;;;;;;;201.23;11.15;;;;;;;;;;5053005;28;20059;-64
2022/01/01 02:35:58;;;;;;;107.35;9.95;;;;;;;;;;5057375;28;20132;-64
2022/01/01 02:38:25;;;;;;;67.03;7.00;;;;;;;;;;5057700;28;20104;-64
2022/01/01 02:40:51;;;;;;;643.88;28.98;;;;;;;;;;5060596;28;20453;-64
2022/01/01 02:43:18;;;;;;;274.55;15.13;;;;;;;;;;5058565;28;20132;-64
2022/01/01 02:45:44;;;;;;;84.15;9.77;;;;;;;;;;5059701;28;20132;-64
2022/01/01 02:48:14;;;;;;;301.55;15.55;;;;;;;;;;5061659;28;20489;-64
2022/01/01 02:50:41;;;;;;;150.00;9.80;;;;;;;;;;5061930;28;20055;-64
2022/01/01 02:53:11;;;;;;;217.93;14.40;;;;;;;;;;5055462;28;20175;-64
2022/01/01 02:55:38;;;;;;;159.57;11.10;;;;;;;;;;5056218;28;20080;-64
2022/01/01 02:58:04;;;;;;;109.90;8.18;;;;;;;;;;5058602;28;20127;-64
2022/01/01 03:00:31;;;;;;;71.05;6.40;;;;;;;;;;5053995;28;20187;-64
2022/01/01 03:02:58;;;;;;;136.35;10.00;;;;;;;;;;5062428;28;20041;-64
2022/01/01 03:05:24;;;;;;;217.43;12.18;;;;;;;;;;5054281;28;20061;-64
2022/01/01 03:07:51;;;;;;;123.03;9.30;;;;;;;;;;5057741;28;20136;-64
2022/01/01 03:10:17;;;;;;;182.68;9.75;;;;;;;;;;5074087;28;20478;-64
2022/01/01 03:12:45;;;;;;;310.80;14.48;;;;;;;;;;5054887;28;20079;-64
2022/01/01 03:15:12;;;;;;;315.08;15.70;;;;;;;;;;5060009;28;20048;-64
2022/01/01 03:17:38;;;;;;;249.27;14.07;;;;;;;;;;5056022;28;20095;-64
2022/01/01 03:20:12;;;;;;;276.35;11.88;;;;;;;;;;5053025;28;20159;-64
2022/01/01 03:22:38;;;;;;;360.73;15.18;;;;;;;;;;5058102;28;20459;-64
2022/01/01 03:25:05;;;;;;;223.75;9.90;;;;;;;;;;5055795;28;20560;-64
2022/01/01 03:27:37;;;;;;;163.80;10.52;;;;;;;;;;5058931;28;20128;-64
2022/01/01 03:30:04;;;;;;;218.20;12.65;;;;;;;;;;5053775;28;20072;-64
2022/01/01 03:32:30;;;;;;;218.90;10.13;;;;;;;;;;5057872;28;20131;-64
2022/01/01 03:35:00;;;;;;;165.68;9.45;;;;;;;;;;5056262;28;20059;-64
2022/01/01 03:37:26;;;;;;;198.88;9.88;;;;;;;;;;5053606;28;20148;-64
2022/01/01 03:39:53;;;;;;;73.60;7.47;;;;;;;;;;5053676;28;20637;-64
2022/01/01 03:42:20;;;;;;;169.25;10.60;;;;;;;;;;5058953;28;20123;-64
2022/01/01 03:44:47;;;;;;;158.65;10.98;;;;;;;;;;5057239;28;20072;-64
2022/01/01 03:47:20;;;;;;;32.28;6.22;;;;;;;;;;5058190;28;20083;-64
2022/01/01 03:49:46;;;;;;;68.97;6.68;;;;;;;;;;5054802;28;20080;-64
2022/01/01 03:52:13;;;;;;;55.20;6.63;;;;;;;;;;5057160;28;20135;-64
2022/01/01 03:54:39;;;;;;;52.53;6.60;;;;;;;;;;5053402;28;20088;-64
2022/01/01 03:57:06;;;;;;;56.23;7.10;;;;;;;;;;5054339;28;20578;-64
2022/01/01 03:59:32;;;;;;;105.95;9.02;;;;;;;;;;5050074;28;20662;-64
2022/01/01 04:01:59;;;;;;;70.18;7.70;;;;;;;;;;5044039;28;20059;-64
2022/01/01 04:04:26;;;;;;;67.30;14.32;;;;;;;;;;5043127;28;20053;-64
2022/01/01 04:06:53;;;;;;;96.68;14.50;;;;;;;;;;5042318;28;20048;-64
2022/01/01 04:09:20;;;;;;;78.70;14.38;;;;;;;;;;5044724;28;20513;-64
2022/01/01 04:11:46;;;;;;;77.23;15.37;;;;;;;;;;5041963;28;20049;-64
2022/01/01 04:14:15;;;;;;;69.40;16.20;;;;;;;;;;5042512;28;20387;-64
2022/01/01 04:16:42;;;;;;;62.33;16.20;;;;;;;;;;5039491;28;20045;-64
2022/01/01 04:19:08;;;;;;;61.75;16.42;;;;;;;;;;5040654;28;20132;-64
2022/01/01 04:21:35;;;;;;;71.07;16.42;;;;;;;;;;5044107;28;20078;-64
2022/01/01 04:24:02;;;;;;;77.88;17.00;;;;;;;;;;5040133;28;20464;-64
2022/01/01 04:26:35;;;;;;;64.57;17.27;;;;;;;;;;5040209;28;20464;-63
2022/01/01 04:29:02;;;;;;;74.53;17.38;;;;;;;;;;5040427;28;20049;-64
2022/01/01 04:31:28;;;;;;;70.70;16.17;;;;;;;;;;5038040;28;20081;-64
2022/01/01 04:33:57;;;;;;;80.40;17.00;;;;;;;;;;5038353;28;20635;-64
2022/01/01 04:36:23;;;;;;;74.22;17.50;;;;;;;;;;5042803;28;20237;-64
2022/01/01 04:38:50;;;;;;;75.05;16.92;;;;;;;;;;5036590;28;20087;-64
2022/01/01 04:41:16;;;;;;;61.78;17.80;;;;;;;;;;5037586;28;20465;-64
2022/01/01 04:43:46;;;;;;;61.88;18.77;;;;;;;;;;5037829;28;20053;-64
2022/01/01 04:46:12;;;;;;;69.07;18.85;;;;;;;;;;5038672;28;20792;-64
2022/01/01 04:48:45;;;;;;;67.93;19.48;;;;;;;;;;5038660;28;20060;-64
2022/01/01 04:51:12;;;;;;;64.60;19.27;;;;;;;;;;5041494;28;20531;-64
2022/01/01 04:53:48;;;;;;;67.57;19.88;;;;;;;;;;5039448;28;20776;-63
2022/01/01 04:56:19;;;;;;;59.67;19.80;;;;;;;;;;5037182;28;20136;-64
2022/01/01 04:58:46;;;;;;;74.10;21.35;;;;;;;;;;5039538;28;20069;-64
2022/01/01 05:01:14;;;;;;;134.23;23.42;;;;;;;;;;5060510;28;20139;-64
2022/01/01 05:03:41;;;;;;;356.25;29.92;;;;;;;;;;5057493;28;20044;-64
2022/01/01 05:06:08;;;;;;;122.85;20.80;;;;;;;;;;5062830;28;20057;-64
2022/01/01 05:08:35;;;;;;;192.32;24.05;;;;;;;;;;5061759;28;20128;-64
2022/01/01 05:11:07;;;;;;;207.02;24.73;;;;;;;;;;5061541;28;20084;-64
2022/01/01 05:13:34;;;;;;;121.55;19.40;;;;;;;;;;5061238;28;20132;-64
2022/01/01 05:16:00;;;;;;;102.65;19.02;;;;;;;;;;5063391;28;20084;-64
2022/01/01 05:18:27;;;;;;;141.05;21.67;;;;;;;;;;5060030;28;20049;-64
2022/01/01 05:20:54;;;;;;;160.95;21.88;;;;;;;;;;5057831;28;20170;-63
2022/01/01 05:23:20;;;;;;;153.30;21.08;;;;;;;;;;5059657;28;20088;-64
2022/01/01 05:25:47;;;;;;;191.20;24.35;;;;;;;;;;5055789;28;20495;-63
2022/01/01 05:28:13;;;;;;;191.55;26.70;;;;;;;;;;5059872;28;20157;-63
2022/01/01 05:30:39;;;;;;;144.13;23.42;;;;;;;;;;5058499;28;20131;-64
2022/01/01 05:33:13;;;;;;;155.00;23.50;;;;;;;;;;5061011;28;20041;-64
2022/01/01 05:35:39;;;;;;;102.55;16.00;;;;;;;;;;5057661;28;20080;-64
2022/01/01 05:38:05;;;;;;;133.65;18.23;;;;;;;;;;5059919;28;20075;-64
2022/01/01 05:40:51;;;;;;;158.48;18.73;;;;;;;;;;5062086;28;20127;-64
2022/01/01 05:43:17;;;;;;;128.70;20.05;;;;;;;;;;5058386;28;20136;-64
2022/01/01 05:45:44;;;;;;;161.45;20.02;;;;;;;;;;5056794;28;20080;-64
2022/01/01 05:48:11;;;;;;;114.93;17.50;;;;;;;;;;5056575;28;20055;-64
2022/01/01 05:50:38;;;;;;;165.75;22.65;;;;;;;;;;5064514;28;20136;-64
2022/01/01 05:53:05;;;;;;;130.80;20.77;;;;;;;;;;5057104;28;20501;-64
2022/01/01 05:55:32;;;;;;;116.10;18.45;;;;;;;;;;5060929;28;20160;-64
2022/01/01 05:57:58;;;;;;;120.93;18.75;;;;;;;;;;5060685;28;20040;-64
2022/01/01 06:00:25;;;;;;;98.53;17.90;;;;;;;;;;5058182;28;20089;-64
2022/01/01 06:02:51;;;;;;;96.60;18.13;;;;;;;;;;5058726;28;20137;-64
2022/01/01 06:05:18;;;;;;;138.63;18.10;;;;;;;;;;5055292;28;20532;-64
2022/01/01 06:07:45;;;;;;;128.57;17.95;;;;;;;;;;5056769;28;20072;-64
2022/01/01 06:10:11;;;;;;;106.22;17.75;;;;;;;;;;5061069;28;20086;-64
2022/01/01 06:12:39;;;;;;;118.45;19.25;;;;;;;;;;5058659;28;20040;-64
2022/01/01 06:15:05;;;;;;;92.95;16.90;;;;;;;;;;5058286;28;20148;-64
2022/01/01 06:17:32;;;;;;;105.13;17.90;;;;;;;;;;5059389;28;20063;-64
2022/01/01 06:19:58;;;;;;;112.00;16.85;;;;;;;;;;5058194;28;20128;-64
2022/01/01 06:22:26;;;;;;;71.20;17.27;;;;;;;;;;5056212;28;20056;-64
2022/01/01 06:24:53;;;;;;;70.80;17.10;;;;;;;;;;5055616;28;20127;-64
2022/01/01 06:27:19;;;;;;;65.38;16.70;;;;;;;;;;5059747;28;20580;-64
2022/01/01 06:29:47;;;;;;;61.28;16.92;;;;;;;;;;5057502;28;20128;-64
2022/01/01 06:32:14;;;;;;;65.00;17.52;;;;;;;;;;5056784;28;20780;-63
2022/01/01 06:34:40;;;;;;;59.63;16.73;;;;;;;;;;5053821;28;20132;-64
2022/01/01 06:37:09;;;;;;;73.50;17.15;;;;;;;;;;5056459;28;20566;-63
2022/01/01 06:39:36;;;;;;;59.13;16.77;;;;;;;;;;5060449;28;20548;-64
2022/01/01 06:42:02;;;;;;;56.05;16.33;;;;;;;;;;5057287;28;20103;-64
2022/01/01 06:44:29;;;;;;;57.30;16.95;;;;;;;;;;5060953;28;20172;-64
2022/01/01 06:46:56;;;;;;;48.25;16.58;;;;;;;;;;5059948;28;20084;-64
2022/01/01 06:49:22;;;;;;;57.70;18.42;;;;;;;;;;5057215;28;20423;-63
2022/01/01 06:51:49;;;;;;;57.60;17.52;;;;;;;;;;5059884;28;20132;-64
2022/01/01 06:54:15;;;;;;;60.10;17.02;;;;;;;;;;5054464;28;20415;-64
2022/01/01 06:56:41;;;;;;;50.45;16.45;;;;;;;;;;5060444;28;20584;-64
2022/01/01 06:59:09;;;;;;;55.42;16.48;;;;;;;;;;5056543;28;20106;-64
2022/01/01 07:01:36;;;;;;;;;;;;;;;;;;5057594;28;20082;-63
2022/01/01 07:04:04;;;;;;;55.03;16.13;;;;;;;;;;5056375;28;19920;-64
2022/01/01 07:06:31;;;;;;;48.50;13.43;;;;;;;;;;5055567;28;20136;-64
2022/01/01 07:08:57;;;;;;;43.63;15.90;;;;;;;;;;5056381;28;20095;-64
2022/01/01 07:11:24;;;;;;;53.22;16.10;;;;;;;;;;5056840;28;20048;-63
2022/01/01 07:13:52;;;;;;;55.95;14.27;;;;;;;;;;5053895;28;20471;-64
2022/01/01 07:16:20;;;;;;;37.85;12.65;;;;;;;;;;5060534;28;20138;-64
2022/01/01 07:18:47;;;;;;;33.92;12.32;;;;;;;;;;5055967;28;20044;-63
2022/01/01 07:21:19;;;;;;;36.55;12.73;;;;;;;;;;5056415;28;20076;-63
2022/01/01 07:23:46;;;;;;;29.35;11.20;;;;;;;;;;5060174;28;20731;-63
2022/01/01 07:26:13;;;;;;;40.47;12.60;;;;;;;;;;5057183;28;20534;-64
2022/01/01 07:28:39;;;;;;;30.67;12.10;;;;;;;;;;5058923;28;20110;-64
2022/01/01 07:31:05;;;;;;;28.23;11.30;;;;;;;;;;5060703;28;20468;-63
2022/01/01 07:33:32;;;;;;;19.50;7.90;;;;;;;;;;5058904;28;20461;-63
2022/01/01 07:36:04;;;;;;;25.73;9.38;;;;;;;;;;5057575;28;20072;-63
2022/01/01 07:38:31;;;;;;;28.67;10.80;;;;;;;;;;5057398;28;20127;-63
2022/01/01 07:40:57;;;;;;;28.40;11.52;;;;;;;;;;5055813;28;20088;-63
2022/01/01 07:43:24;;;;;;;31.33;11.50;;;;;;;;;;5057473;28;20080;-63
2022/01/01 07:45:50;;;;;;;21.35;8.98;;;;;;;;;;5057608;28;20135;-63
2022/01/01 07:48:17;;;;;;;27.83;11.00;;;;;;;;;;5070065;28;20077;-63
2022/01/01 07:50:45;;;;;;;28.85;10.15;;;;;;;;;;5079558;28;20072;-63
2022/01/01 07:53:14;;;;;;;25.85;9.02;;;;;;;;;;5074711;28;20491;-63
2022/01/01 07:55:41;;;;;;;24.55;10.43;;;;;;;;;;5077740;28;20406;-63
2022/01/01 07:58:13;;;;;;;28.42;10.43;;;;;;;;;;5075226;28;20051;-64
2022/01/01 08:00:40;;;;;;;28.17;10.35;;;;;;;;;;5053503;28;20107;-63
2022/01/01 08:03:07;;;;;;;22.38;7.68;;;;;;;;;;5058958;28;20053;-64
2022/01/01 08:05:33;;;;;;;25.52;10.48;;;;;;;;;;5046267;28;20071;-63
2022/01/01 08:08:00;;;;;;;28.08;10.23;;;;;;;;;;5055247;28;20570;-63
2022/01/01 08:10:29;;;;;;;25.48;9.65;;;;;;;;;;5056486;28;20465;-63
2022/01/01 08:12:58;;;;;;;20.38;8.95;;;;;;;;;;5055099;28;20128;-64
2022/01/01 08:15:25;;;;;;;21.23;7.97;;;;;;;;;;5058140;28;20055;-63
2022/01/01 08:17:51;;;;;;;18.35;8.68;;;;;;;;;;5052172;28;20045;-64
2022/01/01 08:20:19;;;;;;;21.83;9.25;;;;;;;;;;5053302;28;20136;-63
2022/01/01 08:22:46;;;;;;;20.63;9.13;;;;;;;;;;5058376;28;20040;-63
2022/01/01 08:25:12;;;;;;;19.10;8.00;;;;;;;;;;5054737;28;20060;-63
2022/01/01 08:27:39;;;;;;;16.40;6.93;;;;;;;;;;5057325;28;20540;-63
2022/01/01 08:30:05;;;;;;;18.00;8.85;;;;;;;;;;5056290;28;20386;-63
2022/01/01 08:32:32;;;;;;;16.80;8.33;;;;;;;;;;5054289;28;20049;-63
2022/01/01 08:34:59;;;;;;;19.15;9.23;;;;;;;;;;5052921;28;20048;-63
2022/01/01 08:37:26;;;;;;;21.13;9.68;;;;;;;;;;5057887;28;20052;-63
2022/01/01 08:39:52;;;;;;;21.45;9.50;;;;;;;;;;5053129;28;20075;-63
2022/01/01 08:42:19;;;;;;;19.45;9.27;;;;;;;;;;5059059;28;20041;-63
2022/01/01 08:44:46;;;;;;;21.98;8.90;;;;;;;;;;5057073;28;20044;-63
2022/01/01 08:47:12;;;;;;;18.20;7.93;;;;;;;;;;5077221;28;20144;-63
2022/01/01 08:49:46;;;;;;;22.35;9.50;;;;;;;;;;5057664;28;20465;-63
2022/01/01 08:52:13;;;;;;;19.23;8.95;;;;;;;;;;5056257;28;20055;-63
2022/01/01 08:54:39;;;;;;;23.08;9.57;;;;;;;;;;5058143;28;20081;-63
2022/01/01 08:57:12;;;;;;;20.80;8.43;;;;;;;;;;5062313;28;20049;-63
2022/01/01 08:59:39;;;;;;;21.38;9.18;;;;;;;;;;5062715;27;20519;-63
2022/01/01 09:02:05;;;;;;;21.95;9.70;;;;;;;;;;5066717;28;20131;-64
2022/01/01 09:04:32;;;;;;;23.60;9.35;;;;;;;;;;5060955;28;20045;-63
2022/01/01 09:06:58;;;;;;;20.48;9.15;;;;;;;;;;5063027;28;20080;-63
2022/01/01 09:09:25;;;;;;;18.63;8.50;;;;;;;;;;5051470;28;20132;-64
2022/01/01 09:11:53;;;;;;;18.75;8.65;;;;;;;;;;5056502;28;20114;-63
2022/01/01 09:14:19;;;;;;;14.57;7.65;;;;;;;;;;5057572;28;20129;-63
2022/01/01 09:16:45;;;;;;;18.17;9.00;;;;;;;;;;5059691;28;20048;-64
2022/01/01 09:19:13;;;;;;;21.92;9.50;;;;;;;;;;5060797;28;20052;-64
2022/01/01 09:21:39;;;;;;;23.63;9.45;;;;;;;;;;5062880;28;20075;-64
2022/01/01 09:24:13;;;;;;;22.20;8.55;;;;;;;;;;5058994;28;20127;-64
2022/01/01 09:26:39;;;;;;;21.95;9.32;;;;;;;;;;5063170;28;20049;-64
2022/01/01 09:29:06;;;;;;;19.52;8.85;;;;;;;;;;5062620;28;20127;-64
2022/01/01 09:31:43;;;;;;;22.20;8.65;;;;;;;;;;5064117;28;20127;-64
2022/01/01 09:34:10;;;;;;;23.40;10.18;;;;;;;;;;5058025;28;20056;-64
2022/01/01 09:36:37;;;;;;;23.27;9.20;;;;;;;;;;5058030;28;20639;-63
2022/01/01 09:39:05;;;;;;;24.90;9.60;;;;;;;;;;5055069;28;20084;-64
2022/01/01 09:41:31;;;;;;;21.95;9.70;;;;;;;;;;5058308;28;20132;-64
2022/01/01 09:43:58;;;;;;;25.05;10.20;;;;;;;;;;5054217;28;20576;-64
2022/01/01 09:46:28;;;;;;;17.83;6.87;;;;;;;;;;5055499;28;20207;-64
2022/01/01 09:48:54;;;;;;;25.30;10.15;;;;;;;;;;5056172;28;20053;-64
2022/01/01 09:51:23;;;;;;;26.85;10.30;;;;;;;;;;5057568;28;20124;-64
2022/01/01 09:53:50;;;;;;;27.70;9.77;;;;;;;;;;5059336;28;20504;-64
2022/01/01 09:56:16;;;;;;;23.38;9.38;;;;;;;;;;5056891;28;20084;-64
2022/01/01 09:58:44;;;;;;;25.35;9.77;;;;;;;;;;5060948;28;20636;-64
2022/01/01 10:01:10;;;;;;;22.08;8.48;;;;;;;;;;5055923;28;20084;-64
2022/01/01 10:03:45;;;;;;;20.07;8.07;;;;;;;;;;5063385;28;20049;-64
2022/01/01 10:06:19;;;;;;;26.45;9.95;;;;;;;;;;5057800;28;20052;-64
2022/01/01 10:08:55;;;;;;;26.80;9.60;;;;;;;;;;5055360;28;20132;-64
2022/01/01 10:11:22;;;;;;;20.20;7.57;;;;;;;;;;5058026;28;20472;-64
2022/01/01 10:13:48;;;;;;;22.83;8.50;;;;;;;;;;5059713;28;20080;-64
2022/01/01 10:16:15;;;;;;;20.40;7.43;;;;;;;;;;5055750;28;20148;-64
2022/01/01 10:18:45;;;;;;;23.00;7.75;;;;;;;;;;5057409;28;20057;-64
2022/01/01 10:21:15;;;;;;;19.88;6.85;;;;;;;;;;5063435;28;20088;-64
2022/01/01 10:23:50;;;;;;;30.98;9.02;;;;;;;;;;5062025;28;20086;-64
2022/01/01 10:29:19;;;;;;;30.77;9.60;;;;;;;;;;5057228;28;20127;-64
2022/01/01 10:31:56;;;;;;;31.27;9.70;;;;;;;;;;5059937;28;20333;-64
2022/01/01 10:34:25;;;;;;;32.10;10.27;;;;;;;;;;5056626;28;20119;-64
2022/01/01 10:36:52;;;;;;;25.40;9.10;;;;;;;;;;5059233;28;20095;-64
2022/01/01 10:39:20;;;;;;;24.58;8.80;;;;;;;;;;5058515;28;20115;-63
2022/01/01 10:41:51;;;;;;;22.58;6.97;;;;;;;;;;5062016;28;20128;-64
2022/01/01 10:44:21;;;;;;;24.10;8.82;;;;;;;;;;5060122;28;20084;-64
2022/01/01 10:46:48;;;;;;;28.35;10.18;;;;;;;;;;5060803;28;20048;-65
2022/01/01 10:49:31;;;;;;;28.60;9.27;;;;;;;;;;5056491;28;20053;-64
2022/01/01 10:52:17;;;;;;;26.50;9.98;;;;;;;;;;5056527;28;20078;-64
2022/01/01 10:54:56;;;;;;;32.85;10.40;;;;;;;;;;5058761;28;20037;-64
2022/01/01 10:57:29;;;;;;;33.05;9.80;;;;;;;;;;5059217;28;20145;-64
2022/01/01 11:00:08;;;;;;;17.65;6.05;;;;;;;;;;5053467;28;20139;-64
2022/01/01 11:02:35;;;;;;;26.48;9.55;;;;;;;;;;5057964;28;20055;-64
2022/01/01 11:05:03;;;;;;;23.17;7.15;;;;;;;;;;5055008;28;20140;-64
2022/01/01 11:07:29;;;;;;;;;;;;;;;;;;5056623;28;20059;-64
2022/01/01 11:09:56;;;;;;;20.23;7.78;;;;;;;;;;5051914;28;19969;-64
2022/01/01 11:12:24;;;;;;;16.52;7.25;;;;;;;;;;5056688;28;20068;-64
2022/01/01 11:14:51;;;;;;;23.05;8.40;;;;;;;;;;5055273;28;20092;-64
2022/01/01 11:17:18;;;;;;;28.67;9.13;;;;;;;;;;5056680;28;20525;-64
2022/01/01 11:19:45;;;;;;;27.30;9.45;;;;;;;;;;5061203;28;20127;-64
2022/01/01 11:22:12;;;;;;;25.42;9.40;;;;;;;;;;5058081;28;20143;-64
2022/01/01 11:24:45;;;;;;;24.05;8.55;;;;;;;;;;5051920;28;20889;-64
2022/01/01 11:27:12;;;;;;;24.58;8.25;;;;;;;;;;5050061;28;20211;-64
2022/01/01 11:29:40;;;;;;;21.83;9.13;;;;;;;;;;5053482;28;20082;-64
2022/01/01 11:32:11;;;;;;;24.92;9.23;;;;;;;;;;5057765;28;20135;-64
2022/01/01 11:34:38;;;;;;;25.17;8.85;;;;;;;;;;5060131;28;20472;-64
2022/01/01 11:37:05;;;;;;;23.25;9.43;;;;;;;;;;5050417;28;20135;-64
2022/01/01 11:39:32;;;;;;;30.02;9.57;;;;;;;;;;5058382;28;20083;-64
2022/01/01 11:42:24;;;;;;;30.63;10.25;;;;;;;;;;5054611;28;20144;-65
2022/01/01 11:44:59;;;;;;;23.88;8.88;;;;;;;;;;5055832;28;20072;-64
2022/01/01 11:47:26;;;;;;;29.83;9.80;;;;;;;;;;5059981;28;20084;-64
2022/01/01 11:49:53;;;;;;;26.27;8.93;;;;;;;;;;5062742;28;20137;-64
2022/01/01 11:52:41;;;;;;;33.42;10.32;;;;;;;;;;5057416;28;20053;-64
2022/01/01 11:55:12;;;;;;;31.02;8.85;;;;;;;;;;5057020;28;20122;-64
2022/01/01 11:57:53;;;;;;;26.20;8.60;;;;;;;;;;5056567;28;20044;-64
2022/01/01 12:00:22;;;;;;;20.27;7.13;;;;;;;;;;5057368;28;20164;-65
2022/01/01 12:02:50;;;;;;;24.42;8.48;;;;;;;;;;5061393;28;20143;-64
2022/01/01 12:05:18;;;;;;;25.80;7.97;;;;;;;;;;5062180;28;20072;-64
2022/01/01 12:07:46;;;;;;;27.92;9.38;;;;;;;;;;5055804;28;20049;-65
2022/01/01 12:10:14;;;;;;;28.63;10.20;;;;;;;;;;5052164;28;20076;-64
2022/01/01 12:12:43;;;;;;;30.00;9.75;;;;;;;;;;5051923;28;20139;-65
2022/01/01 12:15:26;;;;;;;30.38;10.73;;;;;;;;;;5051832;28;20135;-64
2022/01/01 12:17:56;;;;;;;23.13;8.30;;;;;;;;;;5059885;28;20048;-64
2022/01/01 12:20:25;;;;;;;26.48;8.90;;;;;;;;;;5056687;28;20132;-65
2022/01/01 12:22:51;;;;;;;24.17;10.15;;;;;;;;;;5065187;28;20518;-64
2022/01/01 12:25:26;;;;;;;27.88;9.77;;;;;;;;;;5067209;28;20467;-64
2022/01/01 12:27:53;;;;;;;31.92;10.80;;;;;;;;;;5062398;28;20135;-64
2022/01/01 12:30:30;;;;;;;28.58;9.65;;;;;;;;;;5060837;28;20139;-64
2022/01/01 12:32:59;;;;;;;20.90;8.13;;;;;;;;;;5062326;28;20492;-64
2022/01/01 12:35:40;;;;;;;15.97;6.97;;;;;;;;;;5064608;28;20099;-65
2022/01/01 12:38:15;;;;;;;20.50;7.82;;;;;;;;;;5059238;28;20382;-64
2022/01/01 12:41:14;;;;;;;20.90;8.80;;;;;;;;;;5061995;28;20052;-64
2022/01/01 12:43:43;;;;;;;19.88;8.93;;;;;;;;;;5024298;28;20523;-64
2022/01/01 12:46:11;;;;;;;18.17;7.22;;;;;;;;;;5064047;28;20080;-64
2022/01/01 12:48:38;;;;;;;14.55;6.00;;;;;;;;;;5055071;28;20098;-64
2022/01/01 12:51:06;;;;;;;20.40;8.48;;;;;;;;;;5063439;28;20051;-64
2022/01/01 12:53:33;;;;;;;15.10;6.63;;;;;;;;;;5057469;28;20067;-64
2022/01/01 12:56:01;;;;;;;18.27;7.05;;;;;;;;;;5059907;28;20504;-64
2022/01/01 12:58:37;;;;;;;20.10;7.25;;;;;;;;;;5058516;28;20472;-64
2022/01/01 13:01:10;;;;;;;21.45;8.73;;;;;;;;;;5055161;28;20486;-65
2022/01/01 13:03:37;;;;;;;23.73;9.40;;;;;;;;;;5061607;28;20055;-65
2022/01/01 13:06:04;;;;;;;23.45;8.75;;;;;;;;;;5061106;28;20053;-65
2022/01/01 13:08:30;;;;;;;19.98;7.18;;;;;;;;;;5060461;28;20068;-64
2022/01/01 13:10:57;;;;;;;19.65;8.15;;;;;;;;;;5053218;28;20147;-65
2022/01/01 13:13:24;;;;;;;19.05;8.05;;;;;;;;;;5055627;28;20076;-64
2022/01/01 13:15:53;;;;;;;23.42;9.77;;;;;;;;;;5058953;28;20087;-64
2022/01/01 13:18:24;;;;;;;21.58;8.50;;;;;;;;;;5056041;28;20061;-64
2022/01/01 13:20:51;;;;;;;19.42;7.60;;;;;;;;;;5057219;28;20140;-64
2022/01/01 13:23:18;;;;;;;23.13;8.82;;;;;;;;;;5053736;28;20135;-65
2022/01/01 13:25:51;;;;;;;24.05;7.80;;;;;;;;;;5060596;28;20102;-64
2022/01/01 13:28:18;;;;;;;25.77;9.00;;;;;;;;;;5064161;28;20044;-64
2022/01/01 13:30:44;;;;;;;23.88;9.13;;;;;;;;;;5055494;28;20048;-64
2022/01/01 13:33:18;;;;;;;25.50;8.88;;;;;;;;;;5058953;28;20438;-64
2022/01/01 13:35:48;;;;;;;22.83;8.13;;;;;;;;;;5064008;28;20143;-64
2022/01/01 13:38:15;;;;;;;22.35;9.55;;;;;;;;;;5055167;28;20132;-64
2022/01/01 13:40:48;;;;;;;20.13;8.25;;;;;;;;;;5058681;28;20063;-64
2022/01/01 13:43:15;;;;;;;19.90;8.63;;;;;;;;;;5062332;28;20076;-64
2022/01/01 13:45:45;;;;;;;22.55;9.60;;;;;;;;;;5061066;28;20524;-64
2022/01/01 13:48:12;;;;;;;20.13;9.15;;;;;;;;;;5061645;28;20047;-64
2022/01/01 13:50:43;;;;;;;17.33;8.30;;;;;;;;;;5061387;28;20139;-64
2022/01/01 13:53:11;;;;;;;22.55;9.30;;;;;;;;;;5059584;28;20072;-64
2022/01/01 13:55:52;;;;;;;18.90;8.95;;;;;;;;;;5058103;28;20131;-64
2022/01/01 13:58:19;;;;;;;16.00;6.70;;;;;;;;;;5053753;28;20084;-64
2022/01/01 14:00:49;;;;;;;16.58;7.18;;;;;;;;;;5057752;28;20140;-64
2022/01/01 14:03:17;;;;;;;21.25;8.32;;;;;;;;;;5047355;28;20052;-64
2022/01/01 14:05:44;;;;;;;12.85;6.75;;;;;;;;;;5052998;28;20041;-64
2022/01/01 14:08:11;;;;;;;13.57;6.68;;;;;;;;;;5058270;28;20659;-64
2022/01/01 14:10:38;;;;;;;;;;;;;;;;;;5056123;28;20128;-64
2022/01/01 14:13:05;;;;;;;13.80;5.97;;;;;;;;;;5055570;28;19924;-64
2022/01/01 14:15:31;;;;;;;18.88;5.55;;;;;;;;;;5054613;28;20161;-64
2022/01/01 14:17:58;;;;;;;13.70;6.15;;;;;;;;;;5057839;28;20067;-64
2022/01/01 14:20:24;;;;;;;12.68;6.00;;;;;;;;;;5059644;28;20080;-64
2022/01/01 14:22:55;;;;;;;13.35;6.35;;;;;;;;;;5055017;28;20061;-64
2022/01/01 14:25:23;;;;;;;13.13;5.25;;;;;;;;;;5042959;28;20095;-65
2022/01/01 14:27:53;;;;;;;10.95;5.53;;;;;;;;;;5059733;28;20487;-64
2022/01/01 14:30:20;;;;;;;10.93;5.13;;;;;;;;;;5059532;28;20548;-64
2022/01/01 14:32:47;;;;;;;11.17;5.87;;;;;;;;;;5059340;28;20053;-64